Nearby METAR Reports

Aktualna pogoda na lotniskach (dane METAR)

 

EPGD - Gdansk/Rebiechow, Poland
Distance from station: ENE 27mi, 44km
Updated: Tue, 03-Aug-2021 6:30pm PDT
Clear
Clear
 Wind from varies
Wind: varies 1 mph , 2 km/h
Temperature: 50°F , 10°C
Dew Point: 50°F , 10°C
Humidity: 100%
Barometer: 29.94 inHg , 1014 hPa
Summary: Clear
Visibility: greater than 7 miles , 10 km
2021/08/04 01:30 EPGD 040130Z VRB01KT CAVOK 10/10 Q1014
EPSC - Szczecin/Golenio, Poland
Distance from station: WSW 128mi, 205km
Updated: Tue, 03-Aug-2021 6:30pm PDT
Clear
Clear
 Wind from ENE
Wind: ENE 1 mph , 2 km/h
Temperature: 55°F , 13°C
Dew Point: 52°F , 11°C
Humidity: 88%
Barometer: 29.94 inHg , 1014 hPa
Summary: Clear
Visibility: greater than 7 miles , 10 km
2021/08/04 01:30 EPSC 040130Z 07001KT CAVOK 13/11 Q1014
 
EPPO - Poznan/Lawica, Poland
Distance from station: SSW 131mi, 210km
Updated: Tue, 03-Aug-2021 6:30pm PDT
Partly Cloudy
Partly Cloudy
 Wind from SSW
Wind: SSW 7 mph , 11 km/h
Temperature: 57°F , 14°C
Dew Point: 54°F , 12°C
Humidity: 88%
Barometer: 29.91 inHg , 1013 hPa
Clouds: Partly Cloudy
Visibility: 6 miles , 10 km
Cloud details: Partly Cloudy 4600 ft
2021/08/04 01:30 EPPO 040130Z 20006KT 9999 SCT046 14/12 Q1013
EPLL - Lodz/Lublinek, Poland
Distance from station: SSE 184mi, 296km
Updated: Tue, 03-Aug-2021 6:30pm PDT
Clear
Clear
 Wind from ENE
Wind: ENE 3 mph , 6 km/h
Temperature: 57°F , 14°C
Dew Point: 57°F , 14°C
Humidity: 100%
Barometer: 29.91 inHg , 1013 hPa
Summary: Clear
Visibility: greater than 7 miles , 10 km
2021/08/04 01:30 EPLL 040130Z 07003KT CAVOK 14/14 Q1013
 
EPWA - Warsaw/Okecie, Poland
Distance from station: SE 191mi, 307km
Updated: Tue, 03-Aug-2021 6:30pm PDT
Clear
Clear
 Wind from ESE
Wind: ESE 2 mph , 4 km/h
Temperature: 61°F , 16°C
Dew Point: 57°F , 14°C
Humidity: 88%
Barometer: 29.94 inHg , 1014 hPa
Summary: Clear
Visibility: greater than 7 miles , 10 km
2021/08/04 01:30 EPWA 040130Z 12002KT CAVOK 16/14 Q1014 NOSIG
EPWR - Wroclaw/Strachow, Poland
Distance from station: S 219mi, 352km
Updated: Tue, 03-Aug-2021 6:30pm PDT
Clear
Clear
 Wind from varies
Wind: varies 2 mph , 4 km/h
Temperature: 57°F , 14°C
Dew Point: 57°F , 14°C
Humidity: 100%
Barometer: 29.91 inHg , 1013 hPa
Summary: Clear
Visibility: greater than 7 miles , 10 km
2021/08/04 01:30 EPWR 040130Z VRB02KT CAVOK 14/14 Q1013

Metar display script from Saratoga-Weather.org